createdAt,value
2018-07-24T00:01:04.456Z,3.63
2018-07-24T00:03:33.265Z,3.70
2018-07-24T00:06:11.250Z,3.33
2018-07-24T00:08:39.770Z,3.60
2018-07-24T00:11:08.398Z,3.65
2018-07-24T00:13:37.341Z,3.93
2018-07-24T00:16:06.436Z,3.58
2018-07-24T00:18:35.098Z,3.77
2018-07-24T00:21:04.304Z,3.90
2018-07-24T00:23:32.863Z,4.17
2018-07-24T00:26:01.564Z,4.00
2018-07-24T00:28:32.002Z,4.10
2018-07-24T00:31:01.937Z,4.30
2018-07-24T00:33:32.093Z,4.40
2018-07-24T00:36:10.384Z,4.25
2018-07-24T00:38:41.353Z,4.00
2018-07-24T00:41:11.253Z,4.03
2018-07-24T00:43:41.517Z,4.12
2018-07-24T00:46:11.953Z,4.10
2018-07-24T00:48:40.828Z,4.40
2018-07-24T00:51:09.745Z,4.47
2018-07-24T00:53:38.744Z,4.40
2018-07-24T00:56:07.798Z,4.55
2018-07-24T00:58:38.247Z,4.30
2018-07-24T01:01:07.101Z,4.47
2018-07-24T01:03:36.804Z,4.15
2018-07-24T01:06:05.608Z,4.20
2018-07-24T01:08:35.061Z,4.20
2018-07-24T01:11:04.282Z,4.45
2018-07-24T01:13:35.402Z,4.50
2018-07-24T01:19:02.798Z,4.30
2018-07-24T01:21:31.602Z,4.57
2018-07-24T01:24:02.378Z,4.20
2018-07-24T01:26:37.792Z,4.53
2018-07-24T01:29:06.815Z,4.50
2018-07-24T01:31:36.236Z,4.35
2018-07-24T01:34:05.120Z,4.53
2018-07-24T01:36:34.098Z,4.60
2018-07-24T01:39:02.778Z,4.70
2018-07-24T01:41:31.219Z,4.75
2018-07-24T01:43:59.822Z,4.58
2018-07-24T01:46:46.984Z,4.53
2018-07-24T01:49:15.520Z,4.30
2018-07-24T01:51:44.722Z,4.67
2018-07-24T01:54:13.226Z,4.62
2018-07-24T01:56:42.060Z,4.90
2018-07-24T01:59:10.892Z,4.40
2018-07-24T02:01:39.571Z,4.53
2018-07-24T02:04:08.036Z,4.95
2018-07-24T02:09:29.312Z,4.90
2018-07-24T02:11:57.928Z,4.85
2018-07-24T02:14:26.654Z,4.90
2018-07-24T02:17:17.760Z,4.50
2018-07-24T02:19:46.503Z,4.87
2018-07-24T02:22:15.340Z,5.10
2018-07-24T02:24:43.922Z,4.67
2018-07-24T02:27:13.150Z,5.07
2018-07-24T02:29:41.690Z,4.90
2018-07-24T02:32:10.299Z,4.77
2018-07-24T02:34:39.004Z,4.92
2018-07-24T02:37:16.978Z,4.85
2018-07-24T02:39:45.830Z,4.80
2018-07-24T02:42:14.277Z,4.65
2018-07-24T02:44:42.859Z,5.30
2018-07-24T02:50:04.678Z,5.00
2018-07-24T02:52:33.218Z,5.00
2018-07-24T02:55:02.598Z,5.40
2018-07-24T03:00:23.193Z,5.62
2018-07-24T03:02:52.352Z,6.00
2018-07-24T03:05:20.867Z,5.90
2018-07-24T03:07:49.376Z,6.05
2018-07-24T03:10:18.199Z,6.22
2018-07-24T03:12:46.808Z,5.83
2018-07-24T03:15:15.862Z,5.78
2018-07-24T03:17:44.770Z,6.13
2018-07-24T03:20:13.496Z,5.90
2018-07-24T03:22:42.322Z,6.70
2018-07-24T03:25:11.920Z,9.68
2018-07-24T03:27:41.414Z,9.93
2018-07-24T03:30:10.851Z,6.90
2018-07-24T03:32:39.642Z,6.83
2018-07-24T03:35:08.558Z,5.90
2018-07-24T03:43:29.220Z,5.90
2018-07-24T03:46:11.614Z,6.42
2018-07-24T03:48:40.732Z,6.10
2018-07-24T03:51:09.762Z,6.40
2018-07-24T03:53:38.866Z,6.33
2018-07-24T03:56:08.201Z,6.75
2018-07-24T03:58:37.128Z,6.35
2018-07-24T04:01:06.520Z,6.30
2018-07-24T04:03:35.308Z,6.10
2018-07-24T04:11:58.880Z,6.17
2018-07-24T04:14:49.856Z,6.30
2018-07-24T04:17:22.060Z,6.20
2018-07-24T04:22:43.334Z,6.10
2018-07-24T04:25:23.878Z,6.53
2018-07-24T04:27:53.526Z,6.30
2018-07-24T04:30:22.810Z,6.62
2018-07-24T04:32:52.313Z,6.33
2018-07-24T04:35:27.099Z,6.47
2018-07-24T04:37:56.093Z,6.20
2018-07-24T04:40:27.341Z,6.30
2018-07-24T04:42:56.878Z,6.58
2018-07-24T04:45:26.098Z,6.20
2018-07-24T04:47:55.813Z,6.33
2018-07-24T04:50:26.018Z,6.20
2018-07-24T04:52:55.170Z,6.10
2018-07-24T04:55:29.278Z,6.25
2018-07-24T04:57:58.737Z,7.20
2018-07-24T05:00:28.327Z,6.78
2018-07-24T05:02:57.337Z,6.60
2018-07-24T05:05:26.314Z,6.03
2018-07-24T05:07:55.962Z,6.27
2018-07-24T05:10:25.442Z,5.87
2018-07-24T05:12:55.946Z,6.10
2018-07-24T05:15:24.596Z,5.90
2018-07-24T05:17:53.288Z,5.97
2018-07-24T05:20:22.102Z,5.97
2018-07-24T05:22:51.913Z,5.85
2018-07-24T05:25:24.056Z,5.60
2018-07-24T05:27:53.229Z,5.60
2018-07-24T05:30:22.510Z,5.53
2018-07-24T05:32:51.508Z,5.97
2018-07-24T05:35:21.674Z,5.55
2018-07-24T05:37:50.473Z,5.53
2018-07-24T05:40:19.458Z,5.08
2018-07-24T05:42:48.443Z,5.50
2018-07-24T05:45:17.200Z,4.70
2018-07-24T05:47:46.040Z,5.10
2018-07-24T05:50:15.036Z,5.45
2018-07-24T05:52:43.520Z,5.33
2018-07-24T05:55:12.444Z,5.37
2018-07-24T05:57:41.124Z,5.20
2018-07-24T06:00:09.852Z,5.00
2018-07-24T06:02:38.606Z,5.10
2018-07-24T06:05:07.314Z,5.40
2018-07-24T06:07:45.188Z,4.78
2018-07-24T06:10:13.664Z,4.57
2018-07-24T06:12:42.522Z,5.17
2018-07-24T06:15:11.160Z,4.83
2018-07-24T06:17:53.388Z,4.90
2018-07-24T06:20:21.927Z,4.83
2018-07-24T06:22:50.467Z,4.83
2018-07-24T06:25:19.774Z,4.90
2018-07-24T06:27:48.498Z,4.93
2018-07-24T06:30:17.306Z,4.85
2018-07-24T06:32:46.280Z,5.17
2018-07-24T06:35:15.263Z,4.70
2018-07-24T06:37:49.290Z,5.03
2018-07-24T06:40:17.961Z,4.95
2018-07-24T06:42:47.057Z,4.53
2018-07-24T06:45:15.610Z,4.60
2018-07-24T06:47:45.117Z,4.70
2018-07-24T06:50:14.290Z,4.50
2018-07-24T06:52:43.558Z,4.70
2018-07-24T06:55:12.538Z,4.60
2018-07-24T07:00:43.830Z,4.33
2018-07-24T07:03:12.687Z,5.40
2018-07-24T07:05:41.829Z,4.72
2018-07-24T07:08:11.031Z,6.10
2018-07-24T07:10:39.785Z,6.20
2018-07-24T07:13:08.836Z,5.53
2018-07-24T07:15:39.038Z,4.83
2018-07-24T07:18:17.643Z,4.67
2018-07-24T07:20:46.425Z,4.40
2018-07-24T07:23:15.410Z,5.10
2018-07-24T07:25:44.275Z,6.78
2018-07-24T07:33:59.028Z,5.25
2018-07-24T07:36:28.115Z,6.08
2018-07-24T07:38:58.625Z,4.67
2018-07-24T07:41:27.685Z,4.83
2018-07-24T07:43:56.855Z,4.70
2018-07-24T07:46:25.825Z,4.75
2018-07-24T07:48:55.401Z,4.47
2018-07-24T07:51:24.930Z,6.28
2018-07-24T07:53:54.055Z,4.28
2018-07-24T07:56:22.877Z,5.50
2018-07-24T07:58:51.811Z,4.20
2018-07-24T08:01:20.267Z,4.83
2018-07-24T08:03:48.811Z,4.20
2018-07-24T08:06:17.711Z,3.00
2018-07-24T08:08:47.489Z,3.40
2018-07-24T08:11:16.087Z,3.10
2018-07-24T08:13:45.679Z,3.08
2018-07-24T08:19:16.247Z,3.15
2018-07-24T08:21:44.973Z,2.95
2018-07-24T08:24:13.552Z,3.70
2018-07-24T08:26:52.777Z,3.80
2018-07-24T08:29:21.344Z,3.65
2018-07-24T08:31:49.923Z,3.05
2018-07-24T08:34:18.440Z,3.00
2018-07-24T08:36:46.927Z,3.20
2018-07-24T08:39:15.371Z,3.83
2018-07-24T08:41:43.956Z,5.63
2018-07-24T08:44:12.401Z,3.60
2018-07-24T08:46:41.012Z,3.50
2018-07-24T08:49:09.550Z,4.35
2018-07-24T08:51:37.908Z,3.67
2018-07-24T08:54:10.502Z,3.40
2018-07-24T08:56:38.929Z,3.27
2018-07-24T08:59:07.699Z,3.30
2018-07-24T09:01:36.242Z,4.72
2018-07-24T09:04:04.823Z,7.15
2018-07-24T09:06:33.242Z,3.77
2018-07-24T09:09:01.975Z,3.30
2018-07-24T09:11:30.554Z,3.50
2018-07-24T09:14:00.217Z,3.30
2018-07-24T09:16:28.751Z,3.10
2018-07-24T09:18:57.383Z,3.52
2018-07-24T09:21:25.907Z,3.15
2018-07-24T09:23:54.372Z,3.15
2018-07-24T09:26:23.001Z,3.05
2018-07-24T09:28:51.474Z,3.15
2018-07-24T09:31:20.134Z,3.15
2018-07-24T09:33:48.645Z,3.72
2018-07-24T09:36:17.122Z,3.20
2018-07-24T09:38:45.639Z,2.83
2018-07-24T09:41:14.352Z,3.20
2018-07-24T09:43:42.835Z,3.30
2018-07-24T09:46:11.341Z,3.30
2018-07-24T09:48:40.008Z,2.93
2018-07-24T09:51:08.851Z,3.30
2018-07-24T09:53:37.287Z,3.85
2018-07-24T09:56:05.873Z,3.52
2018-07-24T09:58:34.565Z,3.23
2018-07-24T10:01:08.342Z,3.10
2018-07-24T10:03:36.967Z,3.27
2018-07-24T10:06:05.412Z,3.30
2018-07-24T10:08:33.903Z,2.80
2018-07-24T10:11:02.549Z,2.90
2018-07-24T10:13:31.146Z,3.20
2018-07-24T10:15:59.897Z,2.90
2018-07-24T10:18:28.745Z,3.15
2018-07-24T10:20:57.333Z,3.08
2018-07-24T10:23:25.797Z,3.00
2018-07-24T10:25:54.174Z,3.30
2018-07-24T10:28:22.683Z,3.10
2018-07-24T10:30:51.182Z,4.08
2018-07-24T10:33:19.767Z,3.50
2018-07-24T10:35:48.331Z,3.03
2018-07-24T10:38:16.997Z,3.10
2018-07-24T10:40:45.701Z,2.90
2018-07-24T10:43:14.265Z,2.98
2018-07-24T10:45:43.228Z,3.10
2018-07-24T10:48:11.777Z,2.90
2018-07-24T10:50:40.361Z,2.98
2018-07-24T10:53:08.899Z,2.80
2018-07-24T10:55:37.672Z,2.80
2018-07-24T10:58:06.372Z,3.45
2018-07-24T11:00:34.841Z,3.30
2018-07-24T11:03:03.363Z,3.00
2018-07-24T11:05:32.001Z,3.10
2018-07-24T11:08:00.642Z,3.10
2018-07-24T11:10:29.733Z,3.05
2018-07-24T11:12:58.194Z,2.87
2018-07-24T11:15:27.051Z,3.20
2018-07-24T11:17:55.596Z,2.98
2018-07-24T11:20:24.344Z,3.02
2018-07-24T11:22:53.007Z,2.90
2018-07-24T11:25:21.444Z,3.05
2018-07-24T11:27:49.964Z,3.10
2018-07-24T11:30:18.700Z,2.83
2018-07-24T11:32:47.717Z,2.90
2018-07-24T11:35:16.439Z,2.80
2018-07-24T11:37:45.154Z,3.02
2018-07-24T11:40:13.686Z,3.00
2018-07-24T11:42:42.132Z,2.83
2018-07-24T11:45:10.632Z,3.00
2018-07-24T11:47:39.687Z,2.90
2018-07-24T11:50:08.127Z,2.80
2018-07-24T11:52:36.492Z,3.00
2018-07-24T11:55:05.010Z,2.62
2018-07-24T11:57:33.809Z,2.52
2018-07-24T12:00:02.220Z,2.80
2018-07-24T12:02:30.934Z,2.80
2018-07-24T12:04:59.431Z,2.65
2018-07-24T12:07:27.830Z,2.70
2018-07-24T12:09:56.309Z,2.75
2018-07-24T12:12:24.798Z,3.08
2018-07-24T12:14:53.450Z,2.70
2018-07-24T12:17:21.926Z,2.80
2018-07-24T12:19:50.519Z,2.60
2018-07-24T12:22:19.031Z,3.10
2018-07-24T12:24:47.830Z,2.80
2018-07-24T12:27:21.451Z,2.80
2018-07-24T12:29:50.791Z,2.85
2018-07-24T12:32:19.378Z,3.00
2018-07-24T12:34:47.909Z,2.60
2018-07-24T12:37:16.405Z,3.27
2018-07-24T12:39:44.867Z,4.37
2018-07-24T12:42:13.629Z,3.80
2018-07-24T12:44:42.408Z,2.90
2018-07-24T12:47:10.997Z,2.95
2018-07-24T12:49:39.655Z,2.87
2018-07-24T12:52:08.061Z,3.00
2018-07-24T12:54:36.574Z,4.15
2018-07-24T12:57:05.031Z,4.70
2018-07-24T12:59:33.479Z,2.75
2018-07-24T13:02:02.009Z,3.20
2018-07-24T13:04:30.767Z,3.22
2018-07-24T13:06:59.187Z,4.00
2018-07-24T13:09:27.707Z,3.70
2018-07-24T13:11:56.499Z,3.25
2018-07-24T13:14:25.517Z,3.22
2018-07-24T13:16:54.023Z,2.90
2018-07-24T13:19:22.419Z,3.60
2018-07-24T13:21:50.865Z,2.98
2018-07-24T13:24:19.662Z,3.10
2018-07-24T13:26:48.213Z,3.20
2018-07-24T13:29:16.686Z,5.12
2018-07-24T13:31:45.143Z,3.90
2018-07-24T13:34:13.624Z,4.60
2018-07-24T13:36:42.146Z,3.25
2018-07-24T13:39:11.562Z,2.90
2018-07-24T13:41:40.352Z,2.92
2018-07-24T13:44:09.158Z,2.90
2018-07-24T13:46:37.601Z,3.08
2018-07-24T13:49:06.238Z,2.77
2018-07-24T13:51:34.745Z,4.03
2018-07-24T13:54:03.232Z,3.70
2018-07-24T13:56:31.732Z,3.00
2018-07-24T13:59:00.325Z,2.83
2018-07-24T14:01:29.046Z,3.00
2018-07-24T14:03:58.423Z,3.08
2018-07-24T14:06:27.009Z,3.50
2018-07-24T14:08:55.814Z,2.90
2018-07-24T14:11:25.279Z,3.10
2018-07-24T14:13:54.125Z,2.80
2018-07-24T14:16:22.760Z,3.17
2018-07-24T14:18:51.322Z,3.05
2018-07-24T14:21:19.979Z,3.42
2018-07-24T14:23:48.370Z,3.22
2018-07-24T14:26:17.162Z,3.92
2018-07-24T14:28:45.956Z,5.25
2018-07-24T14:31:14.402Z,3.27
2018-07-24T14:33:42.871Z,3.02
2018-07-24T14:36:11.418Z,2.98
2018-07-24T14:38:39.856Z,3.58
2018-07-24T14:41:08.399Z,4.10
2018-07-24T14:43:36.873Z,3.40
2018-07-24T14:46:05.384Z,2.80
2018-07-24T14:48:33.976Z,2.65
2018-07-24T14:51:02.611Z,2.67
2018-07-24T14:53:31.266Z,2.90
2018-07-24T14:55:59.796Z,2.75
2018-07-24T14:58:28.359Z,2.80
2018-07-24T15:00:57.150Z,2.60
2018-07-24T15:03:25.613Z,2.80
2018-07-24T15:05:55.777Z,3.33
2018-07-24T15:08:26.767Z,4.97
2018-07-24T15:10:55.707Z,4.20
2018-07-24T15:13:24.915Z,5.15
2018-07-24T15:15:53.430Z,4.40
2018-07-24T15:18:22.663Z,3.90
2018-07-24T15:20:51.121Z,3.20
2018-07-24T15:23:19.603Z,3.00
2018-07-24T15:25:47.997Z,3.00
2018-07-24T15:28:16.585Z,2.90
2018-07-24T15:30:45.208Z,3.20
2018-07-24T15:33:13.753Z,3.02
2018-07-24T15:35:42.911Z,3.10
2018-07-24T15:38:11.390Z,3.00
2018-07-24T15:40:39.827Z,3.37
2018-07-24T15:43:08.391Z,3.10
2018-07-24T15:45:37.039Z,2.92
2018-07-24T15:48:05.731Z,3.35
2018-07-24T15:50:34.179Z,4.20
2018-07-24T15:53:02.597Z,4.33
2018-07-24T15:55:31.357Z,3.30
2018-07-24T15:57:59.811Z,3.37
2018-07-24T16:00:28.290Z,3.50
2018-07-24T16:02:57.234Z,3.33
2018-07-24T16:05:26.360Z,3.52
2018-07-24T16:07:55.278Z,3.42
2018-07-24T16:10:24.038Z,2.85
2018-07-24T16:12:53.622Z,3.30
2018-07-24T16:15:28.213Z,3.10
2018-07-24T16:18:05.397Z,3.00
2018-07-24T16:20:33.896Z,3.40
2018-07-24T16:23:02.698Z,3.20
2018-07-24T16:25:31.483Z,3.40
2018-07-24T16:28:09.412Z,3.65
2018-07-24T16:30:37.992Z,3.15
2018-07-24T16:33:06.570Z,4.00
2018-07-24T16:35:35.473Z,3.33
2018-07-24T16:38:17.618Z,3.30
2018-07-24T16:40:46.111Z,3.33
2018-07-24T16:43:15.017Z,3.35
2018-07-24T16:45:43.915Z,3.45
2018-07-24T16:48:12.405Z,3.70
2018-07-24T16:50:41.120Z,3.45
2018-07-24T16:53:09.588Z,3.30
2018-07-24T16:55:38.098Z,3.47
2018-07-24T16:58:07.527Z,3.58
2018-07-24T17:00:36.484Z,3.67
2018-07-24T17:03:05.107Z,3.55
2018-07-24T17:05:33.616Z,3.98
2018-07-24T17:08:07.402Z,5.20
2018-07-24T17:10:36.430Z,5.40
2018-07-24T17:13:05.685Z,4.20
2018-07-24T17:15:34.427Z,3.90
2018-07-24T17:18:03.213Z,4.20
2018-07-24T17:20:31.644Z,3.65
2018-07-24T17:23:00.234Z,4.17
2018-07-24T17:25:28.783Z,3.77
2018-07-24T17:27:57.696Z,3.33
2018-07-24T17:30:26.183Z,3.45
2018-07-24T17:32:54.660Z,3.25
2018-07-24T17:35:23.483Z,3.37
2018-07-24T17:37:52.004Z,3.40
2018-07-24T17:40:20.597Z,3.05
2018-07-24T17:42:49.160Z,3.47
2018-07-24T17:45:17.723Z,3.37
2018-07-24T17:47:46.346Z,3.55
2018-07-24T17:50:15.132Z,2.87
2018-07-24T17:52:43.996Z,3.22
2018-07-24T17:55:12.763Z,3.52
2018-07-24T17:57:41.344Z,3.08
2018-07-24T18:00:09.915Z,3.00
2018-07-24T18:02:38.546Z,2.67
2018-07-24T18:05:07.126Z,2.90
2018-07-24T18:07:35.688Z,2.92
2018-07-24T18:10:04.293Z,3.08
2018-07-24T18:12:32.859Z,3.30
2018-07-24T18:15:01.889Z,3.05
2018-07-24T18:17:35.377Z,2.40
2018-07-24T18:20:04.047Z,3.10
2018-07-24T18:22:32.639Z,3.02
2018-07-24T18:25:02.006Z,3.02
2018-07-24T18:27:35.552Z,2.90
2018-07-24T18:30:04.128Z,2.98
2018-07-24T18:32:33.362Z,3.00
2018-07-24T18:35:02.140Z,2.98
2018-07-24T18:37:44.396Z,2.95
2018-07-24T18:40:13.233Z,3.50
2018-07-24T18:42:41.904Z,3.42
2018-07-24T18:45:10.676Z,3.72
2018-07-24T18:47:40.308Z,3.22
2018-07-24T18:50:09.062Z,3.62
2018-07-24T18:52:37.913Z,3.30
2018-07-24T18:55:07.478Z,2.85
2018-07-24T18:57:41.048Z,3.08
2018-07-24T19:00:09.798Z,3.58
2018-07-24T19:02:38.855Z,3.00
2018-07-24T19:05:07.977Z,3.30
2018-07-24T19:07:36.985Z,3.70
2018-07-24T19:10:05.830Z,3.10
2018-07-24T19:12:34.680Z,4.30
2018-07-24T19:15:03.390Z,3.87
2018-07-24T19:17:41.954Z,3.50
2018-07-24T19:20:10.992Z,3.25
2018-07-24T19:22:39.838Z,3.52
2018-07-24T19:25:09.004Z,2.50
2018-07-24T19:27:37.884Z,4.15
2018-07-24T19:30:06.441Z,3.62
2018-07-24T19:32:35.612Z,4.25
2018-07-24T19:35:04.548Z,3.08
2018-07-24T19:37:33.466Z,2.95
2018-07-24T19:40:02.315Z,2.83
2018-07-24T19:42:31.508Z,4.53
2018-07-24T19:45:00.500Z,4.17
2018-07-24T19:47:29.184Z,2.87
2018-07-24T19:49:58.011Z,2.58
2018-07-24T19:52:27.625Z,2.85
2018-07-24T19:54:59.346Z,2.85
2018-07-24T19:57:28.567Z,2.90
2018-07-24T19:59:57.344Z,3.10
2018-07-24T20:02:26.385Z,2.72
2018-07-24T20:04:56.346Z,3.02
2018-07-24T20:07:30.266Z,2.90
2018-07-24T20:09:59.253Z,3.75
2018-07-24T20:12:28.149Z,3.02
2018-07-24T20:14:56.971Z,3.10
2018-07-24T20:17:25.734Z,3.65
2018-07-24T20:19:54.665Z,3.20
2018-07-24T20:22:27.619Z,3.17
2018-07-24T20:24:57.009Z,3.37
2018-07-24T20:27:25.838Z,3.12
2018-07-24T20:29:59.036Z,3.10
2018-07-24T20:32:29.902Z,3.05
2018-07-24T20:34:58.694Z,3.22
2018-07-24T20:40:19.990Z,2.90
2018-07-24T20:42:49.255Z,3.35
2018-07-24T20:45:17.826Z,3.62
2018-07-24T20:47:46.402Z,3.67
2018-07-24T20:50:14.906Z,3.35
2018-07-24T20:52:43.426Z,3.35
2018-07-24T20:55:12.166Z,3.20
2018-07-24T20:57:41.400Z,3.40
2018-07-24T21:00:10.084Z,3.80
2018-07-24T21:02:38.736Z,3.33
2018-07-24T21:05:07.810Z,3.87
2018-07-24T21:07:36.322Z,3.62
2018-07-24T21:10:09.026Z,3.20
2018-07-24T21:12:37.451Z,3.40
2018-07-24T21:15:07.828Z,3.55
2018-07-24T21:17:36.688Z,3.50
2018-07-24T21:20:05.210Z,3.45
2018-07-24T21:22:34.114Z,3.30
2018-07-24T21:25:02.994Z,2.80
2018-07-24T21:27:31.748Z,3.15
2018-07-24T21:30:00.335Z,3.30
2018-07-24T21:32:29.128Z,3.40
2018-07-24T21:34:57.543Z,3.10
2018-07-24T21:37:26.090Z,3.30
2018-07-24T21:39:54.567Z,3.75
2018-07-24T21:42:23.062Z,3.77
2018-07-24T21:44:51.622Z,3.45
2018-07-24T21:47:21.137Z,3.70
2018-07-24T21:49:49.717Z,3.30
2018-07-24T21:52:18.290Z,3.08
2018-07-24T21:54:47.428Z,3.08
2018-07-24T21:57:17.417Z,3.30
2018-07-24T21:59:45.935Z,3.80
2018-07-24T22:02:14.450Z,3.52
2018-07-24T22:04:44.575Z,3.10
2018-07-24T22:07:18.270Z,3.22
2018-07-24T22:09:46.772Z,3.50
2018-07-24T22:12:15.370Z,3.42
2018-07-24T22:14:43.983Z,3.67
2018-07-24T22:17:12.634Z,3.37
2018-07-24T22:19:41.409Z,3.37
2018-07-24T22:22:10.048Z,3.50
2018-07-24T22:24:38.663Z,3.10
2018-07-24T22:27:09.447Z,3.52
2018-07-24T22:29:38.019Z,3.12
2018-07-24T22:32:06.898Z,3.10
2018-07-24T22:34:35.607Z,3.25
2018-07-24T22:37:09.617Z,3.70
2018-07-24T22:39:39.136Z,3.35
2018-07-24T22:42:07.952Z,3.20
2018-07-24T22:44:37.466Z,3.42
2018-07-24T22:47:15.690Z,3.10
2018-07-24T22:49:44.347Z,3.33
2018-07-24T22:52:12.929Z,3.45
2018-07-24T22:54:41.521Z,3.10
2018-07-24T22:57:23.758Z,3.20
2018-07-24T22:59:52.390Z,3.90
2018-07-24T23:02:21.319Z,3.70
2018-07-24T23:04:50.180Z,3.02
2018-07-24T23:07:19.225Z,3.33
2018-07-24T23:09:48.167Z,2.95
2018-07-24T23:12:17.397Z,3.37
2018-07-24T23:14:48.909Z,3.52
2018-07-24T23:17:18.681Z,3.40
2018-07-24T23:19:51.127Z,3.20
2018-07-24T23:22:20.489Z,3.70
2018-07-24T23:24:49.823Z,3.20
2018-07-24T23:27:19.771Z,3.27
2018-07-24T23:29:48.395Z,3.60
2018-07-24T23:32:16.948Z,3.60
2018-07-24T23:34:45.449Z,3.58
2018-07-24T23:37:13.978Z,3.50
2018-07-24T23:39:42.950Z,3.47
2018-07-24T23:42:12.673Z,3.85
2018-07-24T23:44:41.577Z,3.67
2018-07-24T23:47:10.849Z,3.62
2018-07-24T23:49:39.802Z,3.58
2018-07-24T23:52:11.297Z,3.30
2018-07-24T23:54:40.655Z,3.95
2018-07-24T23:57:09.567Z,3.50
2018-07-24T23:59:38.290Z,3.47
